createdAt,value
2023-03-12T00:00:52.838Z,3.42
2023-03-12T00:03:19.200Z,3.28
2023-03-12T00:05:45.885Z,2.53
2023-03-12T00:08:13.053Z,2.80
2023-03-12T00:10:40.541Z,3.20
2023-03-12T00:13:07.729Z,2.50
2023-03-12T00:15:39.019Z,3.30
2023-03-12T00:18:05.540Z,3.72
2023-03-12T00:20:32.288Z,2.55
2023-03-12T00:22:58.793Z,2.80
2023-03-12T00:25:25.112Z,4.63
2023-03-12T00:27:51.477Z,2.80
2023-03-12T00:30:17.854Z,2.40
2023-03-12T00:32:44.854Z,2.22
2023-03-12T00:35:11.201Z,2.05
2023-03-12T00:37:38.476Z,2.33
2023-03-12T00:40:08.282Z,2.38
2023-03-12T00:42:34.586Z,2.00
2023-03-12T00:45:00.946Z,2.38
2023-03-12T00:47:27.281Z,3.72
2023-03-12T00:49:53.562Z,4.60
2023-03-12T00:52:19.906Z,3.60
2023-03-12T00:54:46.204Z,2.30
2023-03-12T00:57:12.507Z,2.67
2023-03-12T00:59:40.317Z,2.03
2023-03-12T01:02:08.337Z,2.20
2023-03-12T01:04:34.708Z,2.50
2023-03-12T01:07:01.149Z,2.40
2023-03-12T01:09:27.470Z,2.00
2023-03-12T01:11:53.812Z,2.28
2023-03-12T01:14:20.372Z,1.77
2023-03-12T01:16:46.769Z,2.47
2023-03-12T01:19:13.553Z,2.50
2023-03-12T01:21:39.998Z,1.77
2023-03-12T01:24:06.987Z,2.30
2023-03-12T01:26:33.401Z,1.85
2023-03-12T01:28:59.703Z,2.00
2023-03-12T01:31:26.212Z,2.20
2023-03-12T01:33:53.884Z,2.15
2023-03-12T01:36:26.244Z,2.05
2023-03-12T01:38:54.510Z,2.20
2023-03-12T01:41:22.507Z,2.65
2023-03-12T01:43:49.351Z,2.35
2023-03-12T01:46:27.512Z,2.08
2023-03-12T01:49:02.093Z,2.00
2023-03-12T01:51:34.891Z,2.30
2023-03-12T01:54:07.353Z,2.08
2023-03-12T01:56:36.492Z,1.77
2023-03-12T01:59:10.135Z,2.42
2023-03-12T02:01:37.510Z,1.73
2023-03-12T02:04:04.089Z,2.22
2023-03-12T02:06:38.850Z,1.85
2023-03-12T02:09:07.300Z,2.25
2023-03-12T02:11:33.708Z,1.67
2023-03-12T02:14:00.053Z,2.30
2023-03-12T02:16:27.038Z,1.63
2023-03-12T02:18:55.688Z,2.05
2023-03-12T02:21:25.669Z,2.22
2023-03-12T02:23:58.854Z,1.70
2023-03-12T02:26:27.318Z,1.80
2023-03-12T02:28:54.589Z,1.60
2023-03-12T02:31:25.772Z,1.20
2023-03-12T02:33:53.152Z,2.03
2023-03-12T02:36:20.517Z,1.40
2023-03-12T02:38:49.554Z,1.40
2023-03-12T02:41:18.836Z,1.77
2023-03-12T02:43:49.225Z,1.35
2023-03-12T02:46:16.435Z,1.65
2023-03-12T02:48:43.003Z,1.80
2023-03-12T02:51:09.844Z,1.92
2023-03-12T02:53:36.180Z,1.80
2023-03-12T02:56:02.540Z,1.73
2023-03-12T02:58:28.904Z,1.70
2023-03-12T03:00:55.297Z,1.60
2023-03-12T03:03:21.773Z,1.95
2023-03-12T03:05:48.378Z,3.03
2023-03-12T03:08:14.754Z,1.65
2023-03-12T03:10:41.046Z,1.80
2023-03-12T03:13:07.369Z,1.77
2023-03-12T03:15:33.760Z,1.55
2023-03-12T03:18:03.659Z,2.20
2023-03-12T03:20:31.408Z,1.65
2023-03-12T03:22:58.241Z,1.80
2023-03-12T03:25:24.783Z,2.05
2023-03-12T03:27:51.238Z,1.42
2023-03-12T03:30:18.476Z,1.42
2023-03-12T03:32:44.866Z,1.63
2023-03-12T03:35:11.324Z,2.13
2023-03-12T03:37:37.641Z,2.42
2023-03-12T03:40:05.466Z,2.15
2023-03-12T03:42:31.773Z,2.20
2023-03-12T03:44:58.061Z,2.60
2023-03-12T03:47:24.393Z,2.45
2023-03-12T03:49:50.774Z,2.65
2023-03-12T03:52:17.080Z,2.42
2023-03-12T03:54:43.378Z,2.42
2023-03-12T03:57:09.733Z,2.80
2023-03-12T03:59:36.074Z,2.88
2023-03-12T04:02:02.522Z,3.00
2023-03-12T04:04:28.991Z,2.60
2023-03-12T04:06:55.284Z,2.63
2023-03-12T04:09:21.621Z,2.63
2023-03-12T04:11:47.995Z,2.95
2023-03-12T04:14:14.367Z,2.67
2023-03-12T04:16:40.767Z,2.78
2023-03-12T04:19:07.166Z,2.80
2023-03-12T04:21:33.528Z,2.63
2023-03-12T04:23:59.868Z,2.50
2023-03-12T04:26:26.199Z,2.45
2023-03-12T04:28:52.492Z,2.25
2023-03-12T04:31:18.856Z,2.65
2023-03-12T04:33:45.175Z,3.03
2023-03-12T04:36:13.249Z,3.47
2023-03-12T04:38:39.573Z,2.10
2023-03-12T04:41:09.103Z,2.58
2023-03-12T04:43:35.737Z,2.40
2023-03-12T04:46:03.105Z,2.85
2023-03-12T04:48:29.550Z,2.88
2023-03-12T04:50:55.938Z,2.70
2023-03-12T04:53:23.071Z,2.72
2023-03-12T04:55:49.714Z,2.58
2023-03-12T04:58:16.821Z,2.95
2023-03-12T05:00:43.224Z,2.10
2023-03-12T05:03:10.012Z,2.42
2023-03-12T05:05:36.740Z,2.15
2023-03-12T05:08:04.592Z,2.38
2023-03-12T05:10:31.575Z,3.05
2023-03-12T05:12:58.320Z,2.30
2023-03-12T05:15:24.872Z,2.47
2023-03-12T05:17:51.832Z,2.35
2023-03-12T05:20:18.572Z,2.50
2023-03-12T05:22:44.877Z,2.28
2023-03-12T05:25:11.575Z,2.30
2023-03-12T05:27:37.925Z,1.88
2023-03-12T05:30:05.805Z,2.58
2023-03-12T05:32:33.386Z,2.22
2023-03-12T05:34:59.794Z,2.42
2023-03-12T05:37:26.161Z,2.58
2023-03-12T05:39:54.276Z,2.53
2023-03-12T05:42:20.609Z,2.20
2023-03-12T05:44:46.931Z,2.45
2023-03-12T05:47:13.272Z,2.13
2023-03-12T05:49:39.582Z,2.00
2023-03-12T05:52:06.735Z,2.15
2023-03-12T05:54:33.302Z,2.40
2023-03-12T05:56:59.682Z,2.60
2023-03-12T05:59:26.327Z,2.75
2023-03-12T06:01:52.722Z,2.40
2023-03-12T06:04:19.054Z,2.85
2023-03-12T06:06:45.407Z,2.25
2023-03-12T06:09:11.755Z,2.42
2023-03-12T06:11:38.546Z,2.60
2023-03-12T06:14:05.117Z,2.40
2023-03-12T06:16:31.490Z,2.25
2023-03-12T06:19:00.915Z,1.77
2023-03-12T06:21:31.165Z,2.28
2023-03-12T06:23:58.286Z,2.30
2023-03-12T06:26:25.698Z,2.13
2023-03-12T06:28:52.508Z,2.47
2023-03-12T06:31:20.074Z,1.95
2023-03-12T06:33:46.492Z,2.45
2023-03-12T06:36:13.244Z,2.17
2023-03-12T06:38:40.233Z,2.80
2023-03-12T06:41:15.449Z,2.25
2023-03-12T06:43:42.679Z,2.10
2023-03-12T06:46:15.427Z,2.33
2023-03-12T06:48:41.894Z,2.55
2023-03-12T06:51:13.058Z,2.38
2023-03-12T06:53:42.265Z,2.17
2023-03-12T06:56:09.254Z,2.00
2023-03-12T06:58:35.645Z,2.40
2023-03-12T07:01:01.979Z,1.60
2023-03-12T07:03:28.362Z,2.30
2023-03-12T07:05:56.381Z,2.42
2023-03-12T07:08:23.352Z,2.50
2023-03-12T07:10:49.653Z,2.30
2023-03-12T07:13:16.188Z,2.90
2023-03-12T07:15:42.565Z,2.05
2023-03-12T07:18:11.449Z,2.10
2023-03-12T07:20:39.961Z,2.40
2023-03-12T07:23:06.533Z,2.20
2023-03-12T07:25:37.631Z,2.33
2023-03-12T07:30:34.072Z,2.05
2023-03-12T07:33:04.953Z,2.65
2023-03-12T07:35:32.691Z,2.40
2023-03-12T07:37:59.718Z,2.60
2023-03-12T07:40:26.485Z,2.17
2023-03-12T07:42:52.831Z,2.58
2023-03-12T07:45:19.870Z,2.30
2023-03-12T07:47:47.179Z,2.25
2023-03-12T07:50:14.207Z,2.33
2023-03-12T07:52:40.673Z,2.40
2023-03-12T07:55:07.770Z,2.30
2023-03-12T07:57:34.227Z,2.33
2023-03-12T08:00:00.841Z,2.35
2023-03-12T08:02:27.244Z,2.70
2023-03-12T08:04:53.654Z,2.58
2023-03-12T08:07:20.108Z,2.13
2023-03-12T08:09:49.462Z,2.70
2023-03-12T08:12:16.062Z,2.47
2023-03-12T08:14:42.513Z,2.85
2023-03-12T08:17:08.863Z,2.50
2023-03-12T08:19:35.183Z,2.30
2023-03-12T08:22:01.490Z,3.10
2023-03-12T08:24:27.813Z,2.95
2023-03-12T08:26:54.254Z,2.40
2023-03-12T08:29:20.582Z,2.72
2023-03-12T08:32:03.306Z,3.63
2023-03-12T08:34:30.380Z,2.92
2023-03-12T08:36:56.722Z,2.67
2023-03-12T08:39:23.056Z,3.40
2023-03-12T08:41:49.428Z,2.28
2023-03-12T08:44:15.747Z,2.80
2023-03-12T08:46:42.042Z,2.88
2023-03-12T08:49:08.390Z,3.03
2023-03-12T08:51:34.704Z,3.38
2023-03-12T08:54:01.010Z,2.88
2023-03-12T08:56:27.332Z,2.38
2023-03-12T08:58:53.737Z,3.72
2023-03-12T09:01:20.106Z,3.13
2023-03-12T09:03:49.366Z,3.03
2023-03-12T09:06:16.720Z,2.67
2023-03-12T09:08:44.187Z,2.53
2023-03-12T09:11:12.174Z,1.55
2023-03-12T09:13:58.086Z,2.90
2023-03-12T09:16:26.305Z,2.38
2023-03-12T09:18:53.292Z,2.35
2023-03-12T09:21:19.768Z,2.92
2023-03-12T09:23:47.027Z,1.42
2023-03-12T09:26:14.124Z,2.80
2023-03-12T09:28:40.680Z,1.63
2023-03-12T09:31:07.033Z,2.00
2023-03-12T09:33:35.764Z,2.58
2023-03-12T09:36:03.060Z,2.72
2023-03-12T09:38:31.732Z,2.72
2023-03-12T09:40:58.685Z,2.67
2023-03-12T09:43:41.382Z,3.50
2023-03-12T09:46:22.389Z,2.70
2023-03-12T09:48:51.715Z,3.25
2023-03-12T09:51:26.334Z,2.28
2023-03-12T09:54:00.482Z,2.13
2023-03-12T09:56:27.342Z,3.13
2023-03-12T09:58:55.561Z,3.08
2023-03-12T10:01:24.762Z,4.10
2023-03-12T10:04:29.764Z,3.33
2023-03-12T10:07:05.191Z,3.83
2023-03-12T10:10:05.446Z,4.38
2023-03-12T10:12:55.679Z,3.47
2023-03-12T10:15:21.927Z,3.08
2023-03-12T10:18:01.724Z,4.30
2023-03-12T10:20:55.714Z,4.15
2023-03-12T10:23:49.865Z,4.00
2023-03-12T10:26:22.794Z,3.80
2023-03-12T10:28:53.486Z,3.40
2023-03-12T10:31:26.978Z,6.00
2023-03-12T10:33:57.628Z,6.43
2023-03-12T10:36:41.431Z,4.75
2023-03-12T10:39:17.248Z,6.13
2023-03-12T10:41:45.964Z,6.97
2023-03-12T10:44:23.056Z,4.75
2023-03-12T10:47:03.418Z,7.78
2023-03-12T10:49:32.931Z,6.63
2023-03-12T10:52:19.118Z,5.47
2023-03-12T10:54:51.789Z,6.50
2023-03-12T10:57:19.514Z,6.63
2023-03-12T10:59:47.540Z,5.80
2023-03-12T11:02:31.971Z,7.93
2023-03-12T11:04:59.423Z,5.75
2023-03-12T11:07:33.665Z,6.80
2023-03-12T11:10:06.083Z,6.15
2023-03-12T11:12:34.575Z,6.40
2023-03-12T11:15:19.012Z,7.57
2023-03-12T11:17:45.577Z,6.93
2023-03-12T11:20:20.789Z,6.32
2023-03-12T11:22:49.009Z,6.80
2023-03-12T11:25:23.969Z,7.07
2023-03-12T11:27:54.065Z,11.68
2023-03-12T11:30:29.651Z,9.07
2023-03-12T11:32:57.945Z,10.48
2023-03-12T11:35:39.178Z,7.57
2023-03-12T11:38:37.054Z,7.63
2023-03-12T11:41:24.215Z,7.70
2023-03-12T11:44:17.705Z,11.80
2023-03-12T11:46:46.989Z,9.93
2023-03-12T11:50:00.720Z,7.28
2023-03-12T11:52:33.021Z,7.82
2023-03-12T11:55:18.749Z,6.47
2023-03-12T11:58:22.616Z,7.25
2023-03-12T12:01:09.946Z,7.10
2023-03-12T12:03:59.473Z,6.60
2023-03-12T12:06:28.821Z,6.82
2023-03-12T12:09:03.299Z,4.20
2023-03-12T12:12:14.274Z,6.35
2023-03-12T12:15:04.019Z,6.75
2023-03-12T12:18:17.590Z,2.72
2023-03-12T12:20:52.700Z,4.53
2023-03-12T12:23:21.924Z,6.43
2023-03-12T12:26:08.239Z,6.35
2023-03-12T12:28:54.450Z,5.30
2023-03-12T12:31:46.173Z,5.38
2023-03-12T12:34:31.379Z,5.07
2023-03-12T12:37:15.854Z,4.15
2023-03-12T12:40:08.558Z,5.05
2023-03-12T12:42:39.521Z,4.22
2023-03-12T12:45:06.843Z,5.40
2023-03-12T12:47:56.922Z,4.90
2023-03-12T12:50:29.427Z,3.92
2023-03-12T12:53:13.082Z,5.63
2023-03-12T12:56:15.501Z,4.57
2023-03-12T12:59:01.647Z,5.20
2023-03-12T13:01:29.413Z,4.00
2023-03-12T13:04:02.492Z,5.20
2023-03-12T13:06:49.375Z,5.57
2023-03-12T13:09:20.575Z,5.43
2023-03-12T13:11:48.640Z,7.00
2023-03-12T13:14:20.492Z,4.65
2023-03-12T13:16:47.996Z,5.53
2023-03-12T13:19:14.242Z,6.20
2023-03-12T13:21:59.339Z,6.53
2023-03-12T13:24:45.263Z,5.13
2023-03-12T13:27:24.718Z,5.78
2023-03-12T13:29:56.754Z,4.00
2023-03-12T13:32:35.443Z,4.07
2023-03-12T13:35:11.651Z,2.80
2023-03-12T13:37:53.163Z,3.53
2023-03-12T13:40:28.635Z,3.50
2023-03-12T13:43:16.076Z,2.40
2023-03-12T13:46:00.993Z,3.80
2023-03-12T13:48:27.858Z,3.58
2023-03-12T13:51:02.257Z,2.42
2023-03-12T13:53:36.258Z,2.22
2023-03-12T13:56:31.229Z,4.28
2023-03-12T13:59:04.499Z,3.50
2023-03-12T14:01:42.814Z,2.35
2023-03-12T14:04:38.313Z,2.63
2023-03-12T14:07:23.467Z,2.08
2023-03-12T14:10:06.615Z,3.65
2023-03-12T14:13:08.953Z,3.10
2023-03-12T14:15:54.043Z,2.30
2023-03-12T14:18:23.834Z,2.83
2023-03-12T14:21:00.580Z,3.50
2023-03-12T14:23:30.013Z,3.50
2023-03-12T14:26:02.314Z,4.82
2023-03-12T14:28:32.638Z,5.15
2023-03-12T14:31:06.720Z,6.15
2023-03-12T14:33:56.942Z,5.72
2023-03-12T14:36:28.083Z,4.50
2023-03-12T14:41:35.810Z,3.75
2023-03-12T14:44:22.865Z,3.60
2023-03-12T14:46:57.033Z,1.90
2023-03-12T14:49:23.522Z,2.83
2023-03-12T14:51:49.934Z,1.30
2023-03-12T14:54:23.799Z,2.20
2023-03-12T14:56:50.654Z,1.77
2023-03-12T14:59:26.728Z,2.47
2023-03-12T15:01:58.792Z,1.35
2023-03-12T15:04:25.848Z,1.92
2023-03-12T15:07:04.225Z,2.28
2023-03-12T15:09:34.290Z,1.55
2023-03-12T15:12:08.375Z,1.20
2023-03-12T15:14:42.269Z,1.38
2023-03-12T15:17:15.946Z,1.70
2023-03-12T15:19:42.671Z,2.40
2023-03-12T15:22:15.614Z,1.63
2023-03-12T15:24:41.994Z,2.60
2023-03-12T15:27:25.137Z,2.28
2023-03-12T15:29:52.365Z,1.98
2023-03-12T15:32:21.018Z,2.70
2023-03-12T15:34:47.980Z,2.72
2023-03-12T15:37:38.776Z,2.60
2023-03-12T15:40:22.091Z,2.85
2023-03-12T15:42:48.933Z,2.55
2023-03-12T15:45:21.606Z,2.92
2023-03-12T15:47:49.241Z,2.15
2023-03-12T15:50:26.584Z,3.22
2023-03-12T15:53:07.711Z,2.85
2023-03-12T15:58:01.670Z,2.95
2023-03-12T16:00:43.356Z,2.33
2023-03-12T16:03:21.608Z,2.47
2023-03-12T16:05:51.076Z,2.67
2023-03-12T16:08:25.742Z,1.80
2023-03-12T16:10:52.921Z,2.47
2023-03-12T16:13:22.512Z,2.58
2023-03-12T16:15:49.030Z,2.95
2023-03-12T16:18:18.557Z,2.42
2023-03-12T16:20:45.864Z,3.10
2023-03-12T16:23:12.465Z,2.30
2023-03-12T16:25:41.604Z,2.60
2023-03-12T16:28:10.751Z,3.85
2023-03-12T16:30:37.094Z,3.05
2023-03-12T16:33:08.971Z,2.88
2023-03-12T16:35:35.887Z,2.45
2023-03-12T16:38:02.891Z,2.17
2023-03-12T16:40:35.156Z,3.08
2023-03-12T16:43:04.475Z,3.17
2023-03-12T16:45:34.673Z,2.78
2023-03-12T16:48:03.824Z,2.28
2023-03-12T16:50:30.989Z,2.22
2023-03-12T16:52:57.806Z,2.47
2023-03-12T16:55:28.410Z,3.17
2023-03-12T16:57:59.230Z,3.30
2023-03-12T17:00:29.498Z,2.95
2023-03-12T17:02:59.467Z,3.27
2023-03-12T17:05:30.258Z,2.95
2023-03-12T17:07:58.307Z,3.90
2023-03-12T17:10:26.169Z,2.75
2023-03-12T17:12:53.043Z,2.72
2023-03-12T17:15:23.242Z,3.05
2023-03-12T17:17:50.170Z,4.35
2023-03-12T17:20:19.780Z,3.17
2023-03-12T17:22:46.513Z,3.97
2023-03-12T17:25:25.915Z,2.80
2023-03-12T17:27:52.796Z,2.90
2023-03-12T17:30:21.484Z,3.38
2023-03-12T17:32:48.666Z,4.10
2023-03-12T17:35:15.070Z,5.90
2023-03-12T17:37:41.502Z,4.15
2023-03-12T17:40:09.345Z,7.88
2023-03-12T17:42:36.936Z,4.63
2023-03-12T17:45:05.732Z,3.50
2023-03-12T17:47:32.068Z,4.47
2023-03-12T17:49:58.393Z,3.58
2023-03-12T17:52:24.833Z,3.60
2023-03-12T17:54:51.229Z,3.20
2023-03-12T17:57:17.627Z,4.43
2023-03-12T17:59:43.987Z,4.20
2023-03-12T18:02:12.738Z,4.40
2023-03-12T18:04:39.126Z,3.42
2023-03-12T18:07:05.542Z,2.33
2023-03-12T18:09:31.862Z,2.85
2023-03-12T18:11:58.232Z,3.42
2023-03-12T18:14:24.647Z,3.78
2023-03-12T18:16:50.974Z,3.42
2023-03-12T18:19:17.570Z,4.60
2023-03-12T18:21:44.097Z,5.68
2023-03-12T18:24:14.711Z,3.15
2023-03-12T18:26:41.265Z,3.92
2023-03-12T18:29:07.574Z,3.08
2023-03-12T18:31:33.965Z,3.42
2023-03-12T18:34:00.297Z,3.17
2023-03-12T18:36:26.639Z,2.88
2023-03-12T18:38:52.946Z,3.00
2023-03-12T18:41:19.276Z,3.08
2023-03-12T18:43:45.596Z,3.15
2023-03-12T18:46:12.926Z,2.55
2023-03-12T18:48:39.308Z,3.45
2023-03-12T18:51:05.779Z,3.08
2023-03-12T18:53:33.812Z,2.55
2023-03-12T18:56:00.198Z,3.15
2023-03-12T18:58:27.862Z,3.42
2023-03-12T19:00:55.874Z,2.72
2023-03-12T19:03:23.051Z,3.20
2023-03-12T19:05:59.519Z,2.42
2023-03-12T19:08:25.845Z,2.88
2023-03-12T19:10:52.175Z,2.05
2023-03-12T19:13:18.477Z,2.60
2023-03-12T19:15:45.143Z,2.83
2023-03-12T19:18:11.601Z,3.15
2023-03-12T19:20:38.241Z,3.80
2023-03-12T19:23:04.532Z,2.80
2023-03-12T19:25:31.922Z,2.90
2023-03-12T19:27:58.422Z,2.78
2023-03-12T19:30:30.273Z,3.58
2023-03-12T19:32:56.639Z,3.40
2023-03-12T19:35:23.055Z,4.10
2023-03-12T19:37:49.419Z,2.60
2023-03-12T19:40:15.922Z,4.70
2023-03-12T19:42:42.320Z,2.80
2023-03-12T19:45:09.484Z,3.42
2023-03-12T19:47:35.797Z,3.85
2023-03-12T19:50:02.172Z,4.65
2023-03-12T19:52:28.596Z,3.05
2023-03-12T19:55:04.209Z,3.38
2023-03-12T19:57:31.391Z,2.67
2023-03-12T19:59:57.752Z,2.92
2023-03-12T20:02:24.259Z,3.17
2023-03-12T20:04:50.649Z,3.75
2023-03-12T20:07:18.308Z,2.75
2023-03-12T20:09:44.616Z,3.78
2023-03-12T20:12:11.081Z,3.88
2023-03-12T20:14:37.412Z,3.25
2023-03-12T20:17:03.707Z,3.92
2023-03-12T20:19:30.072Z,2.75
2023-03-12T20:21:57.112Z,2.85
2023-03-12T20:24:23.783Z,3.03
2023-03-12T20:26:50.360Z,2.38
2023-03-12T20:29:16.917Z,2.83
2023-03-12T20:31:43.537Z,2.58
2023-03-12T20:34:09.955Z,2.53
2023-03-12T20:36:36.276Z,3.78
2023-03-12T20:39:02.762Z,2.33
2023-03-12T20:41:29.170Z,2.47
2023-03-12T20:43:57.404Z,3.78
2023-03-12T20:46:24.476Z,2.58
2023-03-12T20:48:51.377Z,2.72
2023-03-12T20:51:18.057Z,3.88
2023-03-12T20:53:44.483Z,2.65
2023-03-12T20:56:11.411Z,2.78
2023-03-12T20:58:37.762Z,2.78
2023-03-12T21:01:05.269Z,2.38
2023-03-12T21:03:31.927Z,3.67
2023-03-12T21:06:00.840Z,2.95
2023-03-12T21:08:28.204Z,3.35
2023-03-12T21:10:54.853Z,2.53
2023-03-12T21:13:22.850Z,4.50
2023-03-12T21:15:50.123Z,4.95
2023-03-12T21:18:17.303Z,2.83
2023-03-12T21:20:44.607Z,2.67
2023-03-12T21:23:11.080Z,2.92
2023-03-12T21:25:39.081Z,3.22
2023-03-12T21:28:07.349Z,5.07
2023-03-12T21:30:33.985Z,3.15
2023-03-12T21:33:01.705Z,3.03
2023-03-12T21:35:28.436Z,2.75
2023-03-12T21:37:56.096Z,3.80
2023-03-12T21:40:23.655Z,4.53
2023-03-12T21:42:50.406Z,2.45
2023-03-12T21:45:16.745Z,3.58
2023-03-12T21:47:43.070Z,3.38
2023-03-12T21:50:10.776Z,3.40
2023-03-12T21:52:42.969Z,3.40
2023-03-12T21:55:10.043Z,3.40
2023-03-12T21:57:36.535Z,2.88
2023-03-12T22:00:04.259Z,3.28
2023-03-12T22:02:31.503Z,2.75
2023-03-12T22:05:00.926Z,3.55
2023-03-12T22:07:29.896Z,3.72
2023-03-12T22:09:56.492Z,3.53
2023-03-12T22:12:23.029Z,3.92
2023-03-12T22:14:49.372Z,3.65
2023-03-12T22:17:15.727Z,3.15
2023-03-12T22:19:42.261Z,2.35
2023-03-12T22:22:08.987Z,2.55
2023-03-12T22:24:35.401Z,2.55
2023-03-12T22:27:03.246Z,2.60
2023-03-12T22:29:29.588Z,3.70
2023-03-12T22:31:56.185Z,2.50
2023-03-12T22:34:22.605Z,2.45
2023-03-12T22:36:49.075Z,3.25
2023-03-12T22:39:16.963Z,2.38
2023-03-12T22:41:43.584Z,2.08
2023-03-12T22:44:10.333Z,2.65
2023-03-12T22:46:36.794Z,3.50
2023-03-12T22:49:04.725Z,2.63
2023-03-12T22:51:32.585Z,2.83
2023-03-12T22:53:59.738Z,2.22
2023-03-12T22:56:26.432Z,2.80
2023-03-12T22:58:52.879Z,3.05
2023-03-12T23:01:22.021Z,1.88
2023-03-12T23:03:49.359Z,3.00
2023-03-12T23:06:21.287Z,2.70
2023-03-12T23:08:48.736Z,3.47
2023-03-12T23:11:16.250Z,2.08
2023-03-12T23:13:44.353Z,1.67
2023-03-12T23:16:13.248Z,3.08
2023-03-12T23:18:39.823Z,3.10
2023-03-12T23:21:12.400Z,2.42
2023-03-12T23:23:41.072Z,2.60
2023-03-12T23:26:07.887Z,2.70
2023-03-12T23:28:34.214Z,2.25
2023-03-12T23:31:06.433Z,1.23
2023-03-12T23:33:34.181Z,2.60
2023-03-12T23:36:06.453Z,1.55
2023-03-12T23:38:32.887Z,2.38
2023-03-12T23:41:07.650Z,2.38
2023-03-12T23:43:34.396Z,2.40
2023-03-12T23:46:02.526Z,2.55
2023-03-12T23:48:31.714Z,2.08
2023-03-12T23:51:12.822Z,2.50
2023-03-12T23:53:40.888Z,2.00
2023-03-12T23:56:09.796Z,2.30
2023-03-12T23:58:36.537Z,2.65
